sensor_id;sensor_type;location;lat;lon;timestamp;temperature;humidity
1461;DHT22;724;49.910;12.530;2023-06-04T00:00:40;6.70;1.00
1461;DHT22;724;49.910;12.530;2023-06-04T00:03:06;6.60;1.00
1461;DHT22;724;49.910;12.530;2023-06-04T00:05:33;6.60;1.00
1461;DHT22;724;49.910;12.530;2023-06-04T00:08:01;6.70;1.00
1461;DHT22;724;49.910;12.530;2023-06-04T00:10:28;6.70;1.00
1461;DHT22;724;49.910;12.530;2023-06-04T00:12:56;6.60;1.00
1461;DHT22;724;49.910;12.530;2023-06-04T00:15:24;6.50;1.00
1461;DHT22;724;49.910;12.530;2023-06-04T00:17:51;6.40;1.00
1461;DHT22;724;49.910;12.530;2023-06-04T00:20:18;6.40;1.00
1461;DHT22;724;49.910;12.530;2023-06-04T00:22:46;6.40;1.00
1461;DHT22;724;49.910;12.530;2023-06-04T00:25:13;6.50;1.00
1461;DHT22;724;49.910;12.530;2023-06-04T00:27:40;6.50;1.00
1461;DHT22;724;49.910;12.530;2023-06-04T00:30:08;6.60;1.00
1461;DHT22;724;49.910;12.530;2023-06-04T00:32:36;6.70;1.00
1461;DHT22;724;49.910;12.530;2023-06-04T00:35:04;6.90;1.00
1461;DHT22;724;49.910;12.530;2023-06-04T00:37:31;7.00;1.00
1461;DHT22;724;49.910;12.530;2023-06-04T00:39:58;7.00;1.00
1461;DHT22;724;49.910;12.530;2023-06-04T00:42:25;7.20;1.00
1461;DHT22;724;49.910;12.530;2023-06-04T00:44:53;7.20;1.00
1461;DHT22;724;49.910;12.530;2023-06-04T00:47:23;6.90;1.00
1461;DHT22;724;49.910;12.530;2023-06-04T00:49:56;6.70;1.00
1461;DHT22;724;49.910;12.530;2023-06-04T00:52:24;6.50;1.00
1461;DHT22;724;49.910;12.530;2023-06-04T00:54:52;6.40;1.00
1461;DHT22;724;49.910;12.530;2023-06-04T00:57:21;6.30;1.00
1461;DHT22;724;49.910;12.530;2023-06-04T00:59:49;6.20;1.00
1461;DHT22;724;49.910;12.530;2023-06-04T01:02:18;6.30;1.00
1461;DHT22;724;49.910;12.530;2023-06-04T01:04:52;6.40;1.00
1461;DHT22;724;49.910;12.530;2023-06-04T01:07:20;6.50;1.00
1461;DHT22;724;49.910;12.530;2023-06-04T01:09:49;6.50;1.00
1461;DHT22;724;49.910;12.530;2023-06-04T01:12:16;6.40;1.00
1461;DHT22;724;49.910;12.530;2023-06-04T01:14:43;6.40;1.00
1461;DHT22;724;49.910;12.530;2023-06-04T01:17:16;6.40;1.00
1461;DHT22;724;49.910;12.530;2023-06-04T01:20:07;6.40;1.00
1461;DHT22;724;49.910;12.530;2023-06-04T01:22:39;6.20;1.00
1461;DHT22;724;49.910;12.530;2023-06-04T01:25:12;6.20;1.00
1461;DHT22;724;49.910;12.530;2023-06-04T01:27:46;6.20;1.00
1461;DHT22;724;49.910;12.530;2023-06-04T01:30:14;6.20;1.00
1461;DHT22;724;49.910;12.530;2023-06-04T01:32:41;6.20;1.00
1461;DHT22;724;49.910;12.530;2023-06-04T01:35:11;6.20;1.00
1461;DHT22;724;49.910;12.530;2023-06-04T01:37:38;6.20;1.00
1461;DHT22;724;49.910;12.530;2023-06-04T01:40:06;6.20;1.00
1461;DHT22;724;49.910;12.530;2023-06-04T01:42:33;6.10;1.00
1461;DHT22;724;49.910;12.530;2023-06-04T01:45:00;6.10;1.00
1461;DHT22;724;49.910;12.530;2023-06-04T01:47:27;6.00;1.00
1461;DHT22;724;49.910;12.530;2023-06-04T01:49:54;6.00;1.00
1461;DHT22;724;49.910;12.530;2023-06-04T01:52:22;5.90;1.00
1461;DHT22;724;49.910;12.530;2023-06-04T01:54:50;5.90;1.00
1461;DHT22;724;49.910;12.530;2023-06-04T01:57:18;5.90;1.00
1461;DHT22;724;49.910;12.530;2023-06-04T01:59:44;5.90;1.00
1461;DHT22;724;49.910;12.530;2023-06-04T02:02:12;5.80;1.00
1461;DHT22;724;49.910;12.530;2023-06-04T02:04:39;5.80;1.00
1461;DHT22;724;49.910;12.530;2023-06-04T02:07:07;5.70;1.00
1461;DHT22;724;49.910;12.530;2023-06-04T02:09:36;5.70;1.00
1461;DHT22;724;49.910;12.530;2023-06-04T02:12:03;5.70;1.00
1461;DHT22;724;49.910;12.530;2023-06-04T02:14:30;5.70;1.00
1461;DHT22;724;49.910;12.530;2023-06-04T02:16:57;5.60;1.00
1461;DHT22;724;49.910;12.530;2023-06-04T02:19:26;5.60;1.00
1461;DHT22;724;49.910;12.530;2023-06-04T02:21:53;5.60;1.00
1461;DHT22;724;49.910;12.530;2023-06-04T02:24:20;5.60;1.00
1461;DHT22;724;49.910;12.530;2023-06-04T02:26:48;5.60;3.10
1461;DHT22;724;49.910;12.530;2023-06-04T02:29:15;5.60;8.70
1461;DHT22;724;49.910;12.530;2023-06-04T02:31:41;5.60;22.50
1461;DHT22;724;49.910;12.530;2023-06-04T02:34:08;5.60;18.10
1461;DHT22;724;49.910;12.530;2023-06-04T02:36:35;5.50;24.40
1461;DHT22;724;49.910;12.530;2023-06-04T02:39:02;5.50;34.20
1461;DHT22;724;49.910;12.530;2023-06-04T02:41:29;5.50;43.50
1461;DHT22;724;49.910;12.530;2023-06-04T02:43:57;5.50;56.30
1461;DHT22;724;49.910;12.530;2023-06-04T02:46:24;5.40;70.40
1461;DHT22;724;49.910;12.530;2023-06-04T02:48:50;5.40;82.70
1461;DHT22;724;49.910;12.530;2023-06-04T02:51:17;5.40;91.40
1461;DHT22;724;49.910;12.530;2023-06-04T02:53:44;5.30;95.50
1461;DHT22;724;49.910;12.530;2023-06-04T02:56:11;5.40;90.50
1461;DHT22;724;49.910;12.530;2023-06-04T02:58:48;5.30;99.60
1461;DHT22;724;49.910;12.530;2023-06-04T03:01:18;5.30;99.90
1461;DHT22;724;49.910;12.530;2023-06-04T03:03:46;5.40;99.90
1461;DHT22;724;49.910;12.530;2023-06-04T03:06:14;5.40;99.90
1461;DHT22;724;49.910;12.530;2023-06-04T03:08:41;5.10;99.90
1461;DHT22;724;49.910;12.530;2023-06-04T03:11:09;5.20;99.90
1461;DHT22;724;49.910;12.530;2023-06-04T03:13:36;5.20;99.90
1461;DHT22;724;49.910;12.530;2023-06-04T03:16:03;5.20;99.90
1461;DHT22;724;49.910;12.530;2023-06-04T03:18:36;5.20;99.90
1461;DHT22;724;49.910;12.530;2023-06-04T03:21:03;5.20;99.90
1461;DHT22;724;49.910;12.530;2023-06-04T03:23:30;5.10;99.90
1461;DHT22;724;49.910;12.530;2023-06-04T03:25:58;5.20;99.90
1461;DHT22;724;49.910;12.530;2023-06-04T03:28:24;5.20;99.90
1461;DHT22;724;49.910;12.530;2023-06-04T03:30:51;5.20;99.90
1461;DHT22;724;49.910;12.530;2023-06-04T03:33:18;5.20;99.90
1461;DHT22;724;49.910;12.530;2023-06-04T03:35:46;5.20;99.90
1461;DHT22;724;49.910;12.530;2023-06-04T03:38:13;5.30;99.90
1461;DHT22;724;49.910;12.530;2023-06-04T03:40:40;5.20;99.90
1461;DHT22;724;49.910;12.530;2023-06-04T03:43:07;5.30;99.90
1461;DHT22;724;49.910;12.530;2023-06-04T03:45:34;5.40;99.90
1461;DHT22;724;49.910;12.530;2023-06-04T03:48:01;5.40;99.90
1461;DHT22;724;49.910;12.530;2023-06-04T03:50:27;5.40;99.90
1461;DHT22;724;49.910;12.530;2023-06-04T03:52:56;5.50;99.90
1461;DHT22;724;49.910;12.530;2023-06-04T03:55:22;5.50;99.90
1461;DHT22;724;49.910;12.530;2023-06-04T03:57:49;5.60;99.90
1461;DHT22;724;49.910;12.530;2023-06-04T04:00:16;5.70;99.90
1461;DHT22;724;49.910;12.530;2023-06-04T04:02:43;5.70;99.90
1461;DHT22;724;49.910;12.530;2023-06-04T04:05:10;5.60;99.90
1461;DHT22;724;49.910;12.530;2023-06-04T04:07:37;5.60;99.90
1461;DHT22;724;49.910;12.530;2023-06-04T04:10:06;5.50;99.90
1461;DHT22;724;49.910;12.530;2023-06-04T04:12:33;5.40;99.90
1461;DHT22;724;49.910;12.530;2023-06-04T04:15:01;5.50;99.90
1461;DHT22;724;49.910;12.530;2023-06-04T04:17:28;5.50;99.90
1461;DHT22;724;49.910;12.530;2023-06-04T04:19:54;5.60;99.90
1461;DHT22;724;49.910;12.530;2023-06-04T04:22:21;5.70;99.90
1461;DHT22;724;49.910;12.530;2023-06-04T04:24:48;5.80;99.90
1461;DHT22;724;49.910;12.530;2023-06-04T04:27:16;5.90;99.90
1461;DHT22;724;49.910;12.530;2023-06-04T04:29:43;6.00;99.90
1461;DHT22;724;49.910;12.530;2023-06-04T04:32:13;6.20;99.90
1461;DHT22;724;49.910;12.530;2023-06-04T04:34:51;6.20;99.90
1461;DHT22;724;49.910;12.530;2023-06-04T04:37:18;6.40;99.90
1461;DHT22;724;49.910;12.530;2023-06-04T04:39:46;6.50;99.90
1461;DHT22;724;49.910;12.530;2023-06-04T04:42:17;6.50;99.90
1461;DHT22;724;49.910;12.530;2023-06-04T04:44:43;6.60;99.90
1461;DHT22;724;49.910;12.530;2023-06-04T04:47:12;6.70;99.90
1461;DHT22;724;49.910;12.530;2023-06-04T04:49:39;6.90;99.90
1461;DHT22;724;49.910;12.530;2023-06-04T04:52:06;7.10;99.90
1461;DHT22;724;49.910;12.530;2023-06-04T04:54:33;7.30;99.90
1461;DHT22;724;49.910;12.530;2023-06-04T04:56:59;7.60;99.90
1461;DHT22;724;49.910;12.530;2023-06-04T04:59:28;8.00;99.90
1461;DHT22;724;49.910;12.530;2023-06-04T05:01:55;8.30;99.90
1461;DHT22;724;49.910;12.530;2023-06-04T05:04:22;8.60;99.90
1461;DHT22;724;49.910;12.530;2023-06-04T05:06:49;9.00;99.90
1461;DHT22;724;49.910;12.530;2023-06-04T05:09:15;9.40;99.90
1461;DHT22;724;49.910;12.530;2023-06-04T05:11:42;9.70;99.90
1461;DHT22;724;49.910;12.530;2023-06-04T05:14:09;10.10;99.90
1461;DHT22;724;49.910;12.530;2023-06-04T05:16:37;10.40;99.90
1461;DHT22;724;49.910;12.530;2023-06-04T05:19:06;10.60;99.90
1461;DHT22;724;49.910;12.530;2023-06-04T05:21:33;10.70;99.90
1461;DHT22;724;49.910;12.530;2023-06-04T05:24:03;11.00;99.90
1461;DHT22;724;49.910;12.530;2023-06-04T05:26:30;11.20;99.90
1461;DHT22;724;49.910;12.530;2023-06-04T05:28:56;11.40;98.70
1461;DHT22;724;49.910;12.530;2023-06-04T05:31:23;11.60;98.60
1461;DHT22;724;49.910;12.530;2023-06-04T05:33:53;11.90;91.10
1461;DHT22;724;49.910;12.530;2023-06-04T05:36:20;12.20;87.40
1461;DHT22;724;49.910;12.530;2023-06-04T05:38:47;12.30;57.80
1461;DHT22;724;49.910;12.530;2023-06-04T05:41:22;12.50;46.80
1461;DHT22;724;49.910;12.530;2023-06-04T05:43:49;12.50;25.90
1461;DHT22;724;49.910;12.530;2023-06-04T05:46:21;12.90;25.40
1461;DHT22;724;49.910;12.530;2023-06-04T05:48:48;12.90;1.60
1461;DHT22;724;49.910;12.530;2023-06-04T05:51:20;13.30;3.90
1461;DHT22;724;49.910;12.530;2023-06-04T05:53:47;13.30;1.00
1461;DHT22;724;49.910;12.530;2023-06-04T05:56:14;13.70;1.00
1461;DHT22;724;49.910;12.530;2023-06-04T05:58:42;13.60;1.00
1461;DHT22;724;49.910;12.530;2023-06-04T06:01:08;14.20;1.00
1461;DHT22;724;49.910;12.530;2023-06-04T06:03:43;13.70;1.00
1461;DHT22;724;49.910;12.530;2023-06-04T06:06:10;14.30;1.00
1461;DHT22;724;49.910;12.530;2023-06-04T06:08:40;14.40;1.00
1461;DHT22;724;49.910;12.530;2023-06-04T06:11:07;13.60;1.00
1461;DHT22;724;49.910;12.530;2023-06-04T06:13:34;13.50;1.00
1461;DHT22;724;49.910;12.530;2023-06-04T06:16:00;13.70;1.00
1461;DHT22;724;49.910;12.530;2023-06-04T06:18:27;13.90;1.00
1461;DHT22;724;49.910;12.530;2023-06-04T06:20:54;13.90;1.00
1461;DHT22;724;49.910;12.530;2023-06-04T06:23:21;14.50;1.00
1461;DHT22;724;49.910;12.530;2023-06-04T06:25:50;14.80;1.00
1461;DHT22;724;49.910;12.530;2023-06-04T06:28:17;14.90;1.00
1461;DHT22;724;49.910;12.530;2023-06-04T06:30:44;14.90;1.00
1461;DHT22;724;49.910;12.530;2023-06-04T06:33:12;15.70;1.00
1461;DHT22;724;49.910;12.530;2023-06-04T06:35:38;15.40;1.00
1461;DHT22;724;49.910;12.530;2023-06-04T06:38:07;15.80;1.00
1461;DHT22;724;49.910;12.530;2023-06-04T06:40:34;15.20;1.00
1461;DHT22;724;49.910;12.530;2023-06-04T06:43:02;15.50;1.00
1461;DHT22;724;49.910;12.530;2023-06-04T06:45:29;15.60;1.00
1461;DHT22;724;49.910;12.530;2023-06-04T06:47:56;16.10;1.00
1461;DHT22;724;49.910;12.530;2023-06-04T06:50:23;15.30;1.00
1461;DHT22;724;49.910;12.530;2023-06-04T06:52:50;16.60;1.00
1461;DHT22;724;49.910;12.530;2023-06-04T06:55:17;16.60;1.00
1461;DHT22;724;49.910;12.530;2023-06-04T06:57:44;16.20;1.00
1461;DHT22;724;49.910;12.530;2023-06-04T07:00:13;16.70;1.00
1461;DHT22;724;49.910;12.530;2023-06-04T07:02:41;16.50;1.00
1461;DHT22;724;49.910;12.530;2023-06-04T07:05:08;16.70;1.00
1461;DHT22;724;49.910;12.530;2023-06-04T07:07:39;17.00;1.00
1461;DHT22;724;49.910;12.530;2023-06-04T07:10:06;17.40;1.00
1461;DHT22;724;49.910;12.530;2023-06-04T07:12:34;17.40;1.00
1461;DHT22;724;49.910;12.530;2023-06-04T07:15:06;17.00;1.00
1461;DHT22;724;49.910;12.530;2023-06-04T07:17:35;17.30;1.00
1461;DHT22;724;49.910;12.530;2023-06-04T07:20:01;16.40;1.00
1461;DHT22;724;49.910;12.530;2023-06-04T07:22:32;17.00;1.00
1461;DHT22;724;49.910;12.530;2023-06-04T07:24:59;17.00;1.00
1461;DHT22;724;49.910;12.530;2023-06-04T07:27:26;17.20;1.00
1461;DHT22;724;49.910;12.530;2023-06-04T07:29:54;17.70;1.00
1461;DHT22;724;49.910;12.530;2023-06-04T07:32:21;18.20;1.00
1461;DHT22;724;49.910;12.530;2023-06-04T07:34:50;18.20;1.00
1461;DHT22;724;49.910;12.530;2023-06-04T07:37:16;17.80;1.00
1461;DHT22;724;49.910;12.530;2023-06-04T07:39:43;18.80;1.00
1461;DHT22;724;49.910;12.530;2023-06-04T07:42:10;18.40;1.00
1461;DHT22;724;49.910;12.530;2023-06-04T07:44:37;17.50;1.00
1461;DHT22;724;49.910;12.530;2023-06-04T07:47:04;17.80;1.00
1461;DHT22;724;49.910;12.530;2023-06-04T07:49:31;18.00;1.00
1461;DHT22;724;49.910;12.530;2023-06-04T07:51:59;17.20;1.00
1461;DHT22;724;49.910;12.530;2023-06-04T07:54:26;18.00;1.00
1461;DHT22;724;49.910;12.530;2023-06-04T07:57:00;18.10;1.00
1461;DHT22;724;49.910;12.530;2023-06-04T07:59:27;18.40;1.00
1461;DHT22;724;49.910;12.530;2023-06-04T08:01:56;17.10;1.00
1461;DHT22;724;49.910;12.530;2023-06-04T08:04:25;16.50;1.00
1461;DHT22;724;49.910;12.530;2023-06-04T08:06:52;16.40;1.00
1461;DHT22;724;49.910;12.530;2023-06-04T08:09:20;16.20;1.00
1461;DHT22;724;49.910;12.530;2023-06-04T08:11:50;16.40;1.00
1461;DHT22;724;49.910;12.530;2023-06-04T08:14:30;18.20;1.00
1461;DHT22;724;49.910;12.530;2023-06-04T08:16:57;18.00;1.00
1461;DHT22;724;49.910;12.530;2023-06-04T08:19:24;17.80;1.00
1461;DHT22;724;49.910;12.530;2023-06-04T08:21:51;18.70;1.00
1461;DHT22;724;49.910;12.530;2023-06-04T08:24:19;19.90;1.00
1461;DHT22;724;49.910;12.530;2023-06-04T08:26:46;20.40;1.00
1461;DHT22;724;49.910;12.530;2023-06-04T08:29:13;19.00;1.00
1461;DHT22;724;49.910;12.530;2023-06-04T08:31:40;19.00;1.00
1461;DHT22;724;49.910;12.530;2023-06-04T08:34:07;19.70;1.00
1461;DHT22;724;49.910;12.530;2023-06-04T08:36:33;19.10;1.00
1461;DHT22;724;49.910;12.530;2023-06-04T08:39:00;19.30;1.00
1461;DHT22;724;49.910;12.530;2023-06-04T08:41:31;18.50;1.00
1461;DHT22;724;49.910;12.530;2023-06-04T08:44:02;18.60;1.00
1461;DHT22;724;49.910;12.530;2023-06-04T08:46:32;19.10;1.00
1461;DHT22;724;49.910;12.530;2023-06-04T08:49:00;19.50;1.00
1461;DHT22;724;49.910;12.530;2023-06-04T08:51:28;18.70;1.00
1461;DHT22;724;49.910;12.530;2023-06-04T08:53:56;19.10;1.00
1461;DHT22;724;49.910;12.530;2023-06-04T08:56:25;18.50;1.00
1461;DHT22;724;49.910;12.530;2023-06-04T08:58:56;17.40;1.00
1461;DHT22;724;49.910;12.530;2023-06-04T09:01:26;18.00;1.00
1461;DHT22;724;49.910;12.530;2023-06-04T09:03:55;17.40;1.00
1461;DHT22;724;49.910;12.530;2023-06-04T09:06:24;19.50;1.00
1461;DHT22;724;49.910;12.530;2023-06-04T09:08:56;19.50;1.00
1461;DHT22;724;49.910;12.530;2023-06-04T09:11:27;19.70;1.00
1461;DHT22;724;49.910;12.530;2023-06-04T09:13:59;20.30;1.00
1461;DHT22;724;49.910;12.530;2023-06-04T09:16:27;19.80;1.00
1461;DHT22;724;49.910;12.530;2023-06-04T09:19:02;20.10;1.00
1461;DHT22;724;49.910;12.530;2023-06-04T09:21:29;21.10;1.00
1461;DHT22;724;49.910;12.530;2023-06-04T09:23:58;21.70;1.00
1461;DHT22;724;49.910;12.530;2023-06-04T09:26:24;19.90;1.00
1461;DHT22;724;49.910;12.530;2023-06-04T09:28:51;20.70;1.00
1461;DHT22;724;49.910;12.530;2023-06-04T09:31:22;21.90;1.00
1461;DHT22;724;49.910;12.530;2023-06-04T09:33:52;21.00;1.00
1461;DHT22;724;49.910;12.530;2023-06-04T09:36:20;19.60;1.00
1461;DHT22;724;49.910;12.530;2023-06-04T09:38:48;18.90;1.00
1461;DHT22;724;49.910;12.530;2023-06-04T09:41:16;18.40;1.00
1461;DHT22;724;49.910;12.530;2023-06-04T09:43:45;19.60;1.00
1461;DHT22;724;49.910;12.530;2023-06-04T09:46:13;20.70;1.00
1461;DHT22;724;49.910;12.530;2023-06-04T09:48:42;19.40;1.00
1461;DHT22;724;49.910;12.530;2023-06-04T09:51:10;18.60;1.00
1461;DHT22;724;49.910;12.530;2023-06-04T09:53:38;18.80;1.00
1461;DHT22;724;49.910;12.530;2023-06-04T09:56:05;18.40;1.00
1461;DHT22;724;49.910;12.530;2023-06-04T09:58:33;18.50;1.00
1461;DHT22;724;49.910;12.530;2023-06-04T10:01:03;20.70;1.00
1461;DHT22;724;49.910;12.530;2023-06-04T10:03:31;20.10;1.00
1461;DHT22;724;49.910;12.530;2023-06-04T10:06:02;19.50;1.00
1461;DHT22;724;49.910;12.530;2023-06-04T10:08:30;19.60;1.00
1461;DHT22;724;49.910;12.530;2023-06-04T10:10:59;18.10;1.00
1461;DHT22;724;49.910;12.530;2023-06-04T10:13:28;19.40;1.00
1461;DHT22;724;49.910;12.530;2023-06-04T10:15:57;20.90;1.00
1461;DHT22;724;49.910;12.530;2023-06-04T10:18:24;20.20;1.00
1461;DHT22;724;49.910;12.530;2023-06-04T10:20:52;21.50;1.00
1461;DHT22;724;49.910;12.530;2023-06-04T10:23:21;21.70;1.00
1461;DHT22;724;49.910;12.530;2023-06-04T10:25:49;19.00;1.00
1461;DHT22;724;49.910;12.530;2023-06-04T10:28:18;19.40;1.00
1461;DHT22;724;49.910;12.530;2023-06-04T10:30:46;18.70;1.00
1461;DHT22;724;49.910;12.530;2023-06-04T10:33:16;19.90;1.00
1461;DHT22;724;49.910;12.530;2023-06-04T10:35:45;19.70;1.00
1461;DHT22;724;49.910;12.530;2023-06-04T10:38:13;19.70;1.00
1461;DHT22;724;49.910;12.530;2023-06-04T10:40:43;20.40;1.00
1461;DHT22;724;49.910;12.530;2023-06-04T10:43:11;21.40;1.00
1461;DHT22;724;49.910;12.530;2023-06-04T10:45:39;21.50;1.00
1461;DHT22;724;49.910;12.530;2023-06-04T10:48:08;20.50;1.00
1461;DHT22;724;49.910;12.530;2023-06-04T10:50:36;21.30;1.00
1461;DHT22;724;49.910;12.530;2023-06-04T10:53:13;20.40;1.00
1461;DHT22;724;49.910;12.530;2023-06-04T10:55:45;21.30;1.00
1461;DHT22;724;49.910;12.530;2023-06-04T10:58:12;20.90;1.00
1461;DHT22;724;49.910;12.530;2023-06-04T11:00:40;21.30;1.00
1461;DHT22;724;49.910;12.530;2023-06-04T11:03:09;21.50;1.00
1461;DHT22;724;49.910;12.530;2023-06-04T11:05:37;21.60;1.00
1461;DHT22;724;49.910;12.530;2023-06-04T11:08:05;21.40;1.00
1461;DHT22;724;49.910;12.530;2023-06-04T11:10:33;22.30;1.00
1461;DHT22;724;49.910;12.530;2023-06-04T11:13:02;22.80;1.00
1461;DHT22;724;49.910;12.530;2023-06-04T11:15:38;22.20;1.00
1461;DHT22;724;49.910;12.530;2023-06-04T11:18:05;21.50;1.00
1461;DHT22;724;49.910;12.530;2023-06-04T11:20:32;21.60;1.00
1461;DHT22;724;49.910;12.530;2023-06-04T11:22:59;20.00;1.00
1461;DHT22;724;49.910;12.530;2023-06-04T11:25:29;20.50;1.00
1461;DHT22;724;49.910;12.530;2023-06-04T11:27:56;21.50;1.00
1461;DHT22;724;49.910;12.530;2023-06-04T11:30:25;21.50;1.00
1461;DHT22;724;49.910;12.530;2023-06-04T11:33:00;22.20;1.00
1461;DHT22;724;49.910;12.530;2023-06-04T11:35:27;22.10;1.00
1461;DHT22;724;49.910;12.530;2023-06-04T11:37:54;22.10;1.00
1461;DHT22;724;49.910;12.530;2023-06-04T11:40:21;22.20;1.00
1461;DHT22;724;49.910;12.530;2023-06-04T11:42:48;21.70;1.00
1461;DHT22;724;49.910;12.530;2023-06-04T11:45:17;22.00;1.00
1461;DHT22;724;49.910;12.530;2023-06-04T11:47:46;21.90;1.00
1461;DHT22;724;49.910;12.530;2023-06-04T11:50:13;21.90;1.00
1461;DHT22;724;49.910;12.530;2023-06-04T11:52:40;21.20;1.00
1461;DHT22;724;49.910;12.530;2023-06-04T11:55:08;20.80;1.00
1461;DHT22;724;49.910;12.530;2023-06-04T11:57:36;21.80;1.00
1461;DHT22;724;49.910;12.530;2023-06-04T12:00:03;20.60;1.00
1461;DHT22;724;49.910;12.530;2023-06-04T12:02:34;20.30;1.00
1461;DHT22;724;49.910;12.530;2023-06-04T12:05:12;20.90;1.00
1461;DHT22;724;49.910;12.530;2023-06-04T12:07:39;21.40;1.00
1461;DHT22;724;49.910;12.530;2023-06-04T12:10:07;21.50;1.00
1461;DHT22;724;49.910;12.530;2023-06-04T12:12:34;21.80;1.00
1461;DHT22;724;49.910;12.530;2023-06-04T12:15:01;21.90;1.00
1461;DHT22;724;49.910;12.530;2023-06-04T12:17:30;21.30;1.00
1461;DHT22;724;49.910;12.530;2023-06-04T12:19:57;21.30;1.00
1461;DHT22;724;49.910;12.530;2023-06-04T12:22:26;21.30;1.00
1461;DHT22;724;49.910;12.530;2023-06-04T12:24:53;21.40;1.00
1461;DHT22;724;49.910;12.530;2023-06-04T12:27:22;20.90;1.00
1461;DHT22;724;49.910;12.530;2023-06-04T12:29:57;21.20;1.00
1461;DHT22;724;49.910;12.530;2023-06-04T12:32:24;21.20;1.00
1461;DHT22;724;49.910;12.530;2023-06-04T12:34:51;20.40;1.00
1461;DHT22;724;49.910;12.530;2023-06-04T12:37:18;20.70;1.00
1461;DHT22;724;49.910;12.530;2023-06-04T12:39:46;20.50;1.00
1461;DHT22;724;49.910;12.530;2023-06-04T12:42:13;20.50;1.00
1461;DHT22;724;49.910;12.530;2023-06-04T12:44:41;21.00;1.00
1461;DHT22;724;49.910;12.530;2023-06-04T12:47:08;21.90;1.00
1461;DHT22;724;49.910;12.530;2023-06-04T12:49:35;21.80;1.00
1461;DHT22;724;49.910;12.530;2023-06-04T12:52:02;21.80;1.00
1461;DHT22;724;49.910;12.530;2023-06-04T12:54:29;20.80;1.00
1461;DHT22;724;49.910;12.530;2023-06-04T12:56:58;20.80;1.00
1461;DHT22;724;49.910;12.530;2023-06-04T12:59:26;21.90;1.00
1461;DHT22;724;49.910;12.530;2023-06-04T13:01:53;20.90;1.00
1461;DHT22;724;49.910;12.530;2023-06-04T13:04:20;21.20;1.00
1461;DHT22;724;49.910;12.530;2023-06-04T13:06:49;21.50;1.00
1461;DHT22;724;49.910;12.530;2023-06-04T13:09:18;20.40;1.00
1461;DHT22;724;49.910;12.530;2023-06-04T13:11:46;20.60;1.00
1461;DHT22;724;49.910;12.530;2023-06-04T13:14:14;20.90;1.00
1461;DHT22;724;49.910;12.530;2023-06-04T13:16:41;21.20;1.00
1461;DHT22;724;49.910;12.530;2023-06-04T13:19:08;21.20;1.00
1461;DHT22;724;49.910;12.530;2023-06-04T13:21:35;21.20;1.00
1461;DHT22;724;49.910;12.530;2023-06-04T13:24:02;21.00;1.00
1461;DHT22;724;49.910;12.530;2023-06-04T13:26:29;21.80;1.00
1461;DHT22;724;49.910;12.530;2023-06-04T13:28:55;22.00;1.00
1461;DHT22;724;49.910;12.530;2023-06-04T13:31:23;22.00;1.00
1461;DHT22;724;49.910;12.530;2023-06-04T13:33:50;22.50;1.00
1461;DHT22;724;49.910;12.530;2023-06-04T13:36:17;22.50;1.00
1461;DHT22;724;49.910;12.530;2023-06-04T13:38:44;22.40;1.00
1461;DHT22;724;49.910;12.530;2023-06-04T13:41:11;21.70;1.00
1461;DHT22;724;49.910;12.530;2023-06-04T13:43:37;22.00;1.00
1461;DHT22;724;49.910;12.530;2023-06-04T13:46:05;21.30;1.00
1461;DHT22;724;49.910;12.530;2023-06-04T13:48:33;21.80;1.00
1461;DHT22;724;49.910;12.530;2023-06-04T13:51:00;21.40;1.00
1461;DHT22;724;49.910;12.530;2023-06-04T13:53:27;21.80;1.00
1461;DHT22;724;49.910;12.530;2023-06-04T13:55:53;21.50;1.00
1461;DHT22;724;49.910;12.530;2023-06-04T13:58:24;21.60;1.00
1461;DHT22;724;49.910;12.530;2023-06-04T14:00:51;21.60;1.00
1461;DHT22;724;49.910;12.530;2023-06-04T14:03:18;22.00;1.00
1461;DHT22;724;49.910;12.530;2023-06-04T14:05:46;21.70;1.00
1461;DHT22;724;49.910;12.530;2023-06-04T14:08:13;21.40;99.90
1461;DHT22;724;49.910;12.530;2023-06-04T14:10:40;21.30;99.90
1461;DHT22;724;49.910;12.530;2023-06-04T14:13:08;22.20;1.00
1461;DHT22;724;49.910;12.530;2023-06-04T14:15:34;22.40;1.00
1461;DHT22;724;49.910;12.530;2023-06-04T14:18:02;22.50;1.00
1461;DHT22;724;49.910;12.530;2023-06-04T14:20:29;22.50;1.00
1461;DHT22;724;49.910;12.530;2023-06-04T14:22:57;22.60;1.00
1461;DHT22;724;49.910;12.530;2023-06-04T14:25:25;22.20;1.00
1461;DHT22;724;49.910;12.530;2023-06-04T14:27:52;21.70;1.00
1461;DHT22;724;49.910;12.530;2023-06-04T14:30:19;21.70;1.00
1461;DHT22;724;49.910;12.530;2023-06-04T14:32:45;21.50;99.90
1461;DHT22;724;49.910;12.530;2023-06-04T14:35:12;21.10;99.90
1461;DHT22;724;49.910;12.530;2023-06-04T14:37:39;21.30;99.90
1461;DHT22;724;49.910;12.530;2023-06-04T14:40:08;22.30;1.00
1461;DHT22;724;49.910;12.530;2023-06-04T14:42:35;22.30;1.00
1461;DHT22;724;49.910;12.530;2023-06-04T14:45:02;22.10;99.90
1461;DHT22;724;49.910;12.530;2023-06-04T14:47:28;22.20;99.90
1461;DHT22;724;49.910;12.530;2023-06-04T14:49:55;21.80;99.90
1461;DHT22;724;49.910;12.530;2023-06-04T14:52:22;22.40;1.00
1461;DHT22;724;49.910;12.530;2023-06-04T14:54:49;23.00;1.00
1461;DHT22;724;49.910;12.530;2023-06-04T14:57:17;22.80;99.90
1461;DHT22;724;49.910;12.530;2023-06-04T14:59:44;22.70;99.90
1461;DHT22;724;49.910;12.530;2023-06-04T15:02:11;22.60;99.90
1461;DHT22;724;49.910;12.530;2023-06-04T15:04:39;23.00;99.90
1461;DHT22;724;49.910;12.530;2023-06-04T15:07:10;22.20;99.90
1461;DHT22;724;49.910;12.530;2023-06-04T15:09:36;21.60;99.90
1461;DHT22;724;49.910;12.530;2023-06-04T15:12:04;21.40;99.90
1461;DHT22;724;49.910;12.530;2023-06-04T15:14:32;21.50;99.90
1461;DHT22;724;49.910;12.530;2023-06-04T15:16:59;21.40;99.90
1461;DHT22;724;49.910;12.530;2023-06-04T15:19:25;21.80;99.90
1461;DHT22;724;49.910;12.530;2023-06-04T15:21:52;22.00;99.90
1461;DHT22;724;49.910;12.530;2023-06-04T15:24:19;21.70;99.90
1461;DHT22;724;49.910;12.530;2023-06-04T15:26:47;21.60;99.90
1461;DHT22;724;49.910;12.530;2023-06-04T15:29:14;21.20;99.90
1461;DHT22;724;49.910;12.530;2023-06-04T15:31:42;21.50;99.90
1461;DHT22;724;49.910;12.530;2023-06-04T15:34:09;21.60;99.90
1461;DHT22;724;49.910;12.530;2023-06-04T15:36:36;21.70;99.90
1461;DHT22;724;49.910;12.530;2023-06-04T15:39:03;21.30;99.90
1461;DHT22;724;49.910;12.530;2023-06-04T15:41:30;21.10;99.90
1461;DHT22;724;49.910;12.530;2023-06-04T15:43:57;21.30;99.90
1461;DHT22;724;49.910;12.530;2023-06-04T15:46:24;21.30;99.90
1461;DHT22;724;49.910;12.530;2023-06-04T15:48:52;21.80;99.90
1461;DHT22;724;49.910;12.530;2023-06-04T15:51:19;22.30;99.90
1461;DHT22;724;49.910;12.530;2023-06-04T15:53:45;22.30;99.90
1461;DHT22;724;49.910;12.530;2023-06-04T15:56:12;21.30;99.90
1461;DHT22;724;49.910;12.530;2023-06-04T15:58:41;21.30;99.90
1461;DHT22;724;49.910;12.530;2023-06-04T16:01:08;21.40;99.90
1461;DHT22;724;49.910;12.530;2023-06-04T16:03:35;21.70;99.90
1461;DHT22;724;49.910;12.530;2023-06-04T16:06:04;21.80;99.90
1461;DHT22;724;49.910;12.530;2023-06-04T16:08:30;21.70;99.90
1461;DHT22;724;49.910;12.530;2023-06-04T16:10:57;21.50;99.90
1461;DHT22;724;49.910;12.530;2023-06-04T16:13:24;21.50;99.90
1461;DHT22;724;49.910;12.530;2023-06-04T16:15:53;21.60;99.90
1461;DHT22;724;49.910;12.530;2023-06-04T16:18:20;21.90;99.90
1461;DHT22;724;49.910;12.530;2023-06-04T16:20:47;21.70;99.90